LOWS/SZG METAR and TAF weather

Enter ICAO airport designator
Station Type Date Time Source
LOWS METAR 2019/10/15 18:50 UTC NOAA

LOWS 151850Z 31010KT 270V340 CAVOK 14/12 Q1007 NOSIG


Station Type Date Time Source
LOWS Decoded METAR 2019/10/15 18:50 UTC NOAA

Salzburg-Flughafen, Austria (LOWS) 47-48N 013-00E 450M
Oct 15, 2019 - 02:50 PM EDT / 2019.10.15 1850 UTC
Wind: from the NW (310 degrees) at 12 MPH (10 KT) (direction variable):0
Visibility: greater than 7 mile(s):0
Temperature: 57 F (14 C)
Dew Point: 53 F (12 C)
Relative Humidity: 87%
Pressure (altimeter): 29.74 in. Hg (1007 hPa)
ob: LOWS 151850Z 31010KT 270V340 CAVOK 14/12 Q1007 NOSIG
cycle: 19

Station Type Date Time Source
LOWS TAF 2019/10/15 18:21 UTC NOAA

TAF LOWS 151715Z 1518/1618 15004KT CAVOK TX16/1614Z TN09/1607Z
BECMG 1519/1521 27005KT 9999 -RA SCT040 BKN060
TEMPO 1521/1524 29015G25KT
TEMPO 1600/1605 SHRA SCT030 BKN040
BECMG 1604/1606 15005KT
BECMG 1608/1610 30005KT FEW050 BKN100
BECMG 1612/1614 CAVOK

Example: see airport list